Time;durP1;ratioP1;P1;durP2;ratioP2;P2;SDS_P1;SDS_P2;PMS_P1;PMS_P2;Temp;Humidity;BMP_temperature;BMP_pressure;BME280_temperature;BME280_humidity;BME280_pressure;Samples;Min_cycle;Max_cycle;Signal;HPM_P1;HPM_P2
2021/12/12 00:00:14;;;;;;;60.67;28.83;;;;;;;;;;5054740;28;20041;-65
2021/12/12 00:02:50;;;;;;;59.90;28.52;;;;;;;;;;5054420;28;20726;-65
2021/12/12 00:05:19;;;;;;;57.20;27.55;;;;;;;;;;5054354;28;20055;-65
2021/12/12 00:07:45;;;;;;;64.20;28.52;;;;;;;;;;5036757;28;20778;-65
2021/12/12 00:10:16;;;;;;;55.67;27.40;;;;;;;;;;5054611;28;20128;-65
2021/12/12 00:12:45;;;;;;;60.95;27.17;;;;;;;;;;5054315;28;20037;-65
2021/12/12 00:15:12;;;;;;;63.65;28.45;;;;;;;;;;5054566;28;20111;-65
2021/12/12 00:17:38;;;;;;;55.92;27.85;;;;;;;;;;5049525;28;20041;-65
2021/12/12 00:20:06;;;;;;;64.45;29.05;;;;;;;;;;5054024;28;20148;-65
2021/12/12 00:22:32;;;;;;;62.78;28.38;;;;;;;;;;5054070;28;20498;-65
2021/12/12 00:24:58;;;;;;;60.17;27.20;;;;;;;;;;5054303;28;20357;-65
2021/12/12 00:27:24;;;;;;;62.33;26.83;;;;;;;;;;5053606;28;20040;-65
2021/12/12 00:29:50;;;;;;;59.53;28.85;;;;;;;;;;5054071;28;20064;-65
2021/12/12 00:32:18;;;;;;;58.20;27.73;;;;;;;;;;5054085;28;20073;-65
2021/12/12 00:34:46;;;;;;;61.83;28.95;;;;;;;;;;5053484;28;20384;-65
2021/12/12 00:37:13;;;;;;;56.28;26.63;;;;;;;;;;5054052;28;20083;-65
2021/12/12 00:39:41;;;;;;;61.08;27.45;;;;;;;;;;5053657;28;20036;-65
2021/12/12 00:42:09;;;;;;;56.97;26.73;;;;;;;;;;5053163;28;20076;-65
2021/12/12 00:44:37;;;;;;;55.20;27.63;;;;;;;;;;5054011;28;20033;-65
2021/12/12 00:47:04;;;;;;;62.38;26.15;;;;;;;;;;5053887;28;20087;-65
2021/12/12 00:49:30;;;;;;;57.00;25.98;;;;;;;;;;5053135;28;20369;-65
2021/12/12 00:51:58;;;;;;;55.88;27.60;;;;;;;;;;5053671;28;20045;-65
2021/12/12 00:54:30;;;;;;;58.80;27.73;;;;;;;;;;5053649;28;20041;-65
2021/12/12 00:56:56;;;;;;;;;;;;;;;;;;5053365;28;20044;-65
2021/12/12 00:59:22;;;;;;;59.78;25.35;;;;;;;;;;5053482;28;19921;-65
2021/12/12 01:01:50;;;;;;;54.42;24.85;;;;;;;;;;5051950;28;20131;-65
2021/12/12 01:04:19;;;;;;;53.80;24.92;;;;;;;;;;5052806;28;20506;-65
2021/12/12 01:06:46;;;;;;;55.45;25.77;;;;;;;;;;5053171;28;20044;-65
2021/12/12 01:09:14;;;;;;;51.55;25.27;;;;;;;;;;5053453;28;20491;-65
2021/12/12 01:11:42;;;;;;;59.45;26.42;;;;;;;;;;5034690;28;20052;-65
2021/12/12 01:14:10;;;;;;;55.17;26.10;;;;;;;;;;5053239;28;20488;-65
2021/12/12 01:16:43;;;;;;;56.90;27.08;;;;;;;;;;5053291;28;20037;-65
2021/12/12 01:19:09;;;;;;;;;;;;;;;;;;5053095;28;20041;-65
2021/12/12 01:21:37;;;;;;;50.90;24.25;;;;;;;;;;5053026;28;20363;-65
2021/12/12 01:24:06;;;;;;;54.47;25.13;;;;;;;;;;5052780;28;20091;-65
2021/12/12 01:26:32;;;;;;;54.60;25.65;;;;;;;;;;5052349;28;20445;-65
2021/12/12 01:28:59;;;;;;;50.17;24.80;;;;;;;;;;5052903;28;20044;-65
2021/12/12 01:31:29;;;;;;;58.15;25.67;;;;;;;;;;5034679;28;20041;-65
2021/12/12 01:34:00;;;;;;;58.15;24.00;;;;;;;;;;5052308;28;20128;-65
2021/12/12 01:36:45;;;;;;;54.50;24.50;;;;;;;;;;5052721;28;20049;-65
2021/12/12 01:39:12;;;;;;;59.72;25.95;;;;;;;;;;5034478;28;20076;-65
2021/12/12 01:41:41;;;;;;;55.80;26.05;;;;;;;;;;5052771;28;20041;-65
2021/12/12 01:44:10;;;;;;;51.53;24.80;;;;;;;;;;5052514;28;20045;-65
2021/12/12 01:46:38;;;;;;;56.30;26.17;;;;;;;;;;5052123;28;20736;-65
2021/12/12 01:49:10;;;;;;;52.90;24.25;;;;;;;;;;5052655;28;20048;-65
2021/12/12 01:51:38;;;;;;;53.75;24.58;;;;;;;;;;5052806;28;20155;-65
2021/12/12 01:54:06;;;;;;;55.45;24.58;;;;;;;;;;5051671;28;20511;-65
2021/12/12 01:56:42;;;;;;;55.35;23.45;;;;;;;;;;5034538;28;20041;-65
2021/12/12 01:59:08;;;;;;;52.58;23.75;;;;;;;;;;5034350;28;20045;-65
2021/12/12 02:01:40;;;;;;;54.28;22.90;;;;;;;;;;5051625;28;20036;-65
2021/12/12 02:04:08;;;;;;;54.22;24.33;;;;;;;;;;5052298;28;20049;-65
2021/12/12 02:06:34;;;;;;;51.05;24.35;;;;;;;;;;5052320;28;20477;-65
2021/12/12 02:09:01;;;;;;;53.03;25.02;;;;;;;;;;5051605;28;20052;-64
2021/12/12 02:11:32;;;;;;;51.33;22.88;;;;;;;;;;5052004;28;20041;-64
2021/12/12 02:14:02;;;;;;;59.58;23.98;;;;;;;;;;5052042;28;20052;-64
2021/12/12 02:16:28;;;;;;;54.85;24.30;;;;;;;;;;5051130;28;20049;-64
2021/12/12 02:18:58;;;;;;;50.05;22.67;;;;;;;;;;5051818;28;20040;-64
2021/12/12 02:21:30;;;;;;;45.15;21.52;;;;;;;;;;5033971;28;20053;-64
2021/12/12 02:35:24;;;;;;;42.97;19.95;;;;;;;;;;5051873;28;20048;-64
2021/12/12 02:37:52;;;;;;;38.58;18.63;;;;;;;;;;5051618;28;20041;-64
2021/12/12 02:40:21;;;;;;;46.38;20.48;;;;;;;;;;5051124;28;20040;-64
2021/12/12 02:42:47;;;;;;;44.70;21.20;;;;;;;;;;5051500;28;20430;-64
2021/12/12 02:45:16;;;;;;;39.13;19.27;;;;;;;;;;5051710;28;20041;-64
2021/12/12 02:47:43;;;;;;;45.47;20.40;;;;;;;;;;5051160;28;20428;-64
2021/12/12 02:50:17;;;;;;;35.03;18.35;;;;;;;;;;5033981;28;20090;-64
2021/12/12 02:52:49;;;;;;;39.83;18.92;;;;;;;;;;5051507;28;20048;-64
2021/12/12 02:55:19;;;;;;;41.38;19.60;;;;;;;;;;5051020;28;20041;-64
2021/12/12 02:57:45;;;;;;;42.25;19.85;;;;;;;;;;5051520;28;20478;-64
2021/12/12 03:00:17;;;;;;;51.67;20.17;;;;;;;;;;5051660;28;20616;-64
2021/12/12 03:02:46;;;;;;;40.63;18.58;;;;;;;;;;5050727;28;20044;-64
2021/12/12 03:05:13;;;;;;;43.20;18.42;;;;;;;;;;5051673;28;20523;-64
2021/12/12 03:07:39;;;;;;;42.50;19.20;;;;;;;;;;5051503;28;20041;-64
2021/12/12 03:10:08;;;;;;;34.72;17.83;;;;;;;;;;5050817;28;20468;-64
2021/12/12 03:12:35;;;;;;;41.42;18.95;;;;;;;;;;5051149;28;20041;-64
2021/12/12 03:15:07;;;;;;;40.72;18.48;;;;;;;;;;5051447;28;20037;-64
2021/12/12 03:17:33;;;;;;;36.45;17.13;;;;;;;;;;5050845;28;20464;-64
2021/12/12 03:20:01;;;;;;;41.13;18.90;;;;;;;;;;5051367;28;20041;-64
2021/12/12 03:22:30;;;;;;;36.72;17.17;;;;;;;;;;5051179;28;20040;-64
2021/12/12 03:24:56;;;;;;;40.38;17.17;;;;;;;;;;5052934;28;20056;-64
2021/12/12 03:27:23;;;;;;;37.47;16.67;;;;;;;;;;5055083;28;20041;-64
2021/12/12 03:29:50;;;;;;;34.65;17.75;;;;;;;;;;5055032;28;20094;-64
2021/12/12 03:32:19;;;;;;;39.70;16.15;;;;;;;;;;5054291;28;20075;-64
2021/12/12 03:34:47;;;;;;;36.75;16.38;;;;;;;;;;5055258;28;20048;-64
2021/12/12 03:37:17;;;;;;;31.85;16.75;;;;;;;;;;5055224;28;20037;-64
2021/12/12 03:39:45;;;;;;;35.13;16.38;;;;;;;;;;5054569;28;20044;-64
2021/12/12 03:42:13;;;;;;;30.80;17.35;;;;;;;;;;5055054;28;20045;-64
2021/12/12 03:44:40;;;;;;;44.58;18.02;;;;;;;;;;5055184;28;20072;-64
2021/12/12 03:47:11;;;;;;;32.00;15.52;;;;;;;;;;5054394;28;20047;-64
2021/12/12 03:49:37;;;;;;;41.83;17.52;;;;;;;;;;5054969;28;20076;-64
2021/12/12 03:52:07;;;;;;;31.40;16.00;;;;;;;;;;5054812;28;20095;-64
2021/12/12 03:54:33;;;;;;;32.85;16.33;;;;;;;;;;5054272;28;20055;-64
2021/12/12 03:57:00;;;;;;;35.38;15.32;;;;;;;;;;5054686;28;20052;-64
2021/12/12 03:59:26;;;;;;;37.35;15.35;;;;;;;;;;5054861;28;20468;-64
2021/12/12 04:01:53;;;;;;;29.75;15.45;;;;;;;;;;5054074;28;20036;-64
2021/12/12 04:04:22;;;;;;;32.28;15.50;;;;;;;;;;5054500;28;20037;-64
2021/12/12 04:06:49;;;;;;;37.85;15.50;;;;;;;;;;5054755;28;20045;-64
2021/12/12 04:09:15;;;;;;;36.65;15.10;;;;;;;;;;5053912;28;20087;-64
2021/12/12 04:11:46;;;;;;;33.92;15.50;;;;;;;;;;5054409;28;20483;-64
2021/12/12 04:14:13;;;;;;;29.27;14.90;;;;;;;;;;5054400;28;20037;-64
2021/12/12 04:16:41;;;;;;;27.50;14.43;;;;;;;;;;5053743;28;20041;-64
2021/12/12 04:19:08;;;;;;;32.25;14.45;;;;;;;;;;5054220;28;20033;-64
2021/12/12 04:21:35;;;;;;;25.08;13.98;;;;;;;;;;5053992;28;20036;-64
2021/12/12 04:24:01;;;;;;;26.70;13.63;;;;;;;;;;5035449;28;20114;-64
2021/12/12 04:26:32;;;;;;;28.88;13.40;;;;;;;;;;5054100;28;20033;-64
2021/12/12 04:29:04;;;;;;;24.98;14.40;;;;;;;;;;5054368;28;20122;-64
2021/12/12 04:31:31;;;;;;;27.52;13.90;;;;;;;;;;5053473;28;20087;-64
2021/12/12 04:33:57;;;;;;;30.67;13.65;;;;;;;;;;5053876;28;20033;-64
2021/12/12 04:36:25;;;;;;;29.67;13.63;;;;;;;;;;5053772;28;20044;-64
2021/12/12 04:38:51;;;;;;;25.10;13.32;;;;;;;;;;5053450;28;20160;-64
2021/12/12 04:41:21;;;;;;;26.17;13.90;;;;;;;;;;5054060;28;20658;-64
2021/12/12 04:43:48;;;;;;;23.90;13.27;;;;;;;;;;5053958;28;20043;-64
2021/12/12 04:46:21;;;;;;;23.52;13.10;;;;;;;;;;5053047;28;20044;-64
2021/12/12 04:51:35;;;;;;;26.02;12.70;;;;;;;;;;5053040;28;20059;-64
2021/12/12 04:54:24;;;;;;;27.38;12.73;;;;;;;;;;5053810;28;20048;-64
2021/12/12 04:56:50;;;;;;;24.52;12.18;;;;;;;;;;5042839;28;20426;-64
2021/12/12 04:59:35;;;;;;;25.80;12.75;;;;;;;;;;5053070;28;20045;-64
2021/12/12 05:02:04;;;;;;;22.35;12.00;;;;;;;;;;5053199;28;20045;-64
2021/12/12 05:04:37;;;;;;;24.15;12.60;;;;;;;;;;5053337;28;20041;-64
2021/12/12 05:07:16;;;;;;;23.42;12.27;;;;;;;;;;5052927;28;20045;-64
2021/12/12 05:09:49;;;;;;;17.50;11.15;;;;;;;;;;5053487;28;20041;-64
2021/12/12 05:12:23;;;;;;;20.50;11.93;;;;;;;;;;5053259;28;20383;-64
2021/12/12 05:14:52;;;;;;;27.00;11.65;;;;;;;;;;5052784;28;20060;-64
2021/12/12 05:17:24;;;;;;;20.13;11.32;;;;;;;;;;5053168;28;20076;-64
2021/12/12 05:19:53;;;;;;;16.60;10.13;;;;;;;;;;5052983;28;20098;-64
2021/12/12 05:22:21;;;;;;;19.33;10.50;;;;;;;;;;5052482;28;20040;-64
2021/12/12 05:24:49;;;;;;;14.48;10.10;;;;;;;;;;5053068;28;20090;-64
2021/12/12 05:27:18;;;;;;;18.15;10.18;;;;;;;;;;5053015;28;20045;-64
2021/12/12 05:29:54;;;;;;;14.55;9.60;;;;;;;;;;5052375;28;20037;-64
2021/12/12 05:32:21;;;;;;;15.52;9.27;;;;;;;;;;5052924;28;20124;-64
2021/12/12 05:34:49;;;;;;;19.30;10.45;;;;;;;;;;5052925;28;20413;-64
2021/12/12 05:37:16;;;;;;;13.75;9.30;;;;;;;;;;5052259;28;20093;-64
2021/12/12 05:39:43;;;;;;;18.23;9.90;;;;;;;;;;5052808;28;20438;-64
2021/12/12 05:42:09;;;;;;;17.33;9.63;;;;;;;;;;5052782;28;20119;-64
2021/12/12 05:44:36;;;;;;;14.93;9.48;;;;;;;;;;5052229;28;20048;-64
2021/12/12 05:47:04;;;;;;;18.30;10.45;;;;;;;;;;5052188;28;20041;-64
2021/12/12 05:49:32;;;;;;;14.25;9.43;;;;;;;;;;5052871;28;20084;-64
2021/12/12 05:51:58;;;;;;;15.27;9.65;;;;;;;;;;5034094;28;20480;-64
2021/12/12 05:54:25;;;;;;;15.02;8.85;;;;;;;;;;5052532;28;20087;-64
2021/12/12 05:56:52;;;;;;;17.90;9.48;;;;;;;;;;5052213;28;20043;-64
2021/12/12 05:59:20;;;;;;;15.15;9.88;;;;;;;;;;5052004;28;20045;-64
2021/12/12 06:01:46;;;;;;;17.95;10.05;;;;;;;;;;5052320;28;20041;-64
2021/12/12 06:04:12;;;;;;;15.50;9.57;;;;;;;;;;5052512;28;20044;-64
2021/12/12 06:06:41;;;;;;;17.98;9.60;;;;;;;;;;5051837;28;20045;-64
2021/12/12 06:09:08;;;;;;;14.20;9.32;;;;;;;;;;5052169;28;20041;-64
2021/12/12 06:11:36;;;;;;;15.73;9.50;;;;;;;;;;5052209;28;20057;-64
2021/12/12 06:14:02;;;;;;;16.40;9.50;;;;;;;;;;5051269;28;20124;-64
2021/12/12 06:16:29;;;;;;;19.95;10.50;;;;;;;;;;5052231;28;20076;-64
2021/12/12 06:19:00;;;;;;;16.73;10.30;;;;;;;;;;5052178;28;20131;-64
2021/12/12 06:21:27;;;;;;;17.58;10.55;;;;;;;;;;5051353;28;20040;-64
2021/12/12 06:23:53;;;;;;;14.30;10.02;;;;;;;;;;5051642;28;20049;-64
2021/12/12 06:26:20;;;;;;;16.27;10.32;;;;;;;;;;5052066;28;20055;-64
2021/12/12 06:28:46;;;;;;;17.85;10.55;;;;;;;;;;5051445;28;20040;-64
2021/12/12 06:31:12;;;;;;;17.25;10.25;;;;;;;;;;5051964;28;20628;-64
2021/12/12 06:33:39;;;;;;;19.88;10.70;;;;;;;;;;5051911;28;20116;-64
2021/12/12 06:36:08;;;;;;;17.35;10.95;;;;;;;;;;5051262;28;20076;-64
2021/12/12 06:38:34;;;;;;;14.27;9.57;;;;;;;;;;5051932;28;20078;-64
2021/12/12 06:41:01;;;;;;;15.70;10.15;;;;;;;;;;5051905;28;20045;-64
2021/12/12 06:43:27;;;;;;;13.60;9.70;;;;;;;;;;5033124;28;20037;-64
2021/12/12 06:45:53;;;;;;;16.98;10.40;;;;;;;;;;5051855;28;20037;-64
2021/12/12 06:48:19;;;;;;;16.92;11.02;;;;;;;;;;5051720;28;20373;-64
2021/12/12 06:50:47;;;;;;;18.25;11.20;;;;;;;;;;5050797;28;20052;-64
2021/12/12 06:53:15;;;;;;;17.88;10.15;;;;;;;;;;5051435;28;20041;-64
2021/12/12 06:55:44;;;;;;;17.33;10.30;;;;;;;;;;5051612;28;20032;-65
2021/12/12 06:58:10;;;;;;;17.17;9.68;;;;;;;;;;5050966;28;20041;-64
2021/12/12 07:00:37;;;;;;;14.98;9.60;;;;;;;;;;5051628;28;20037;-64
2021/12/12 07:03:03;;;;;;;16.52;10.23;;;;;;;;;;5051043;28;20037;-64
2021/12/12 07:05:30;;;;;;;15.80;10.50;;;;;;;;;;5050766;28;20036;-64
2021/12/12 07:07:57;;;;;;;16.08;10.00;;;;;;;;;;5051446;28;20102;-64
2021/12/12 07:10:24;;;;;;;16.95;10.40;;;;;;;;;;5051536;28;20456;-64
2021/12/12 07:12:55;;;;;;;14.73;9.93;;;;;;;;;;5050582;28;20041;-64
2021/12/12 07:15:23;;;;;;;19.50;10.95;;;;;;;;;;5051483;28;20049;-64
2021/12/12 07:17:52;;;;;;;15.02;9.35;;;;;;;;;;5051331;28;20049;-64
2021/12/12 07:20:18;;;;;;;17.23;9.98;;;;;;;;;;5050782;28;20080;-64
2021/12/12 07:22:44;;;;;;;16.95;10.05;;;;;;;;;;5050914;28;20110;-64
2021/12/12 07:25:10;;;;;;;16.67;10.82;;;;;;;;;;5051469;28;20041;-64
2021/12/12 07:27:37;;;;;;;16.90;10.32;;;;;;;;;;5050447;28;20053;-64
2021/12/12 07:30:05;;;;;;;18.70;10.63;;;;;;;;;;5051245;28;20045;-64
2021/12/12 07:32:31;;;;;;;13.07;8.85;;;;;;;;;;5051235;28;20051;-64
2021/12/12 07:34:57;;;;;;;15.85;10.05;;;;;;;;;;5050539;28;20037;-64
2021/12/12 07:37:24;;;;;;;17.42;10.30;;;;;;;;;;5051185;28;20045;-64
2021/12/12 07:39:50;;;;;;;16.38;10.35;;;;;;;;;;5050877;28;20039;-64
2021/12/12 07:42:17;;;;;;;16.10;10.10;;;;;;;;;;5050344;28;20445;-64
2021/12/12 07:44:44;;;;;;;15.77;10.15;;;;;;;;;;5051159;28;20037;-64
2021/12/12 07:47:13;;;;;;;14.77;9.43;;;;;;;;;;5050962;28;20040;-64
2021/12/12 07:49:41;;;;;;;15.45;10.00;;;;;;;;;;5050461;28;20080;-64
2021/12/12 07:52:09;;;;;;;17.13;10.10;;;;;;;;;;5050931;28;20479;-64
2021/12/12 07:54:35;;;;;;;15.68;9.35;;;;;;;;;;5051135;28;20041;-64
2021/12/12 07:57:01;;;;;;;17.35;9.95;;;;;;;;;;5050288;28;20384;-64
2021/12/12 07:59:28;;;;;;;15.82;9.80;;;;;;;;;;5051061;28;20084;-64
2021/12/12 08:01:54;;;;;;;14.95;9.40;;;;;;;;;;5050881;28;20041;-64
2021/12/12 08:04:22;;;;;;;13.73;9.02;;;;;;;;;;5050127;28;20048;-64
2021/12/12 08:06:49;;;;;;;14.40;9.85;;;;;;;;;;5050814;28;20041;-64
2021/12/12 08:09:15;;;;;;;15.88;9.27;;;;;;;;;;5050961;28;20041;-64
2021/12/12 08:11:43;;;;;;;15.27;9.55;;;;;;;;;;5053069;28;20045;-64
2021/12/12 08:14:10;;;;;;;15.73;9.43;;;;;;;;;;5054237;28;20051;-64
2021/12/12 08:16:37;;;;;;;16.73;9.98;;;;;;;;;;5054529;28;20612;-64
2021/12/12 08:19:03;;;;;;;17.80;10.25;;;;;;;;;;5053909;28;20472;-64
2021/12/12 08:21:33;;;;;;;20.85;11.27;;;;;;;;;;5054007;28;20041;-64
2021/12/12 08:24:00;;;;;;;19.85;11.93;;;;;;;;;;5053897;28;20111;-64
2021/12/12 08:26:28;;;;;;;21.25;12.00;;;;;;;;;;5053722;28;20045;-64
2021/12/12 08:28:54;;;;;;;22.33;11.93;;;;;;;;;;5054082;28;20049;-64
2021/12/12 08:31:21;;;;;;;22.52;12.48;;;;;;;;;;5054154;28;20052;-64
2021/12/12 08:33:47;;;;;;;24.08;12.05;;;;;;;;;;5053529;28;20447;-64
2021/12/12 08:36:15;;;;;;;20.95;12.25;;;;;;;;;;5054080;28;20096;-64
2021/12/12 08:38:41;;;;;;;18.65;10.50;;;;;;;;;;5054134;28;20103;-64
2021/12/12 08:41:08;;;;;;;25.05;12.18;;;;;;;;;;5053370;28;20083;-64
2021/12/12 08:43:34;;;;;;;25.20;12.90;;;;;;;;;;5053876;28;20067;-64
2021/12/12 08:46:04;;;;;;;26.98;13.82;;;;;;;;;;5054119;28;20047;-64
2021/12/12 08:48:32;;;;;;;25.52;13.52;;;;;;;;;;5053073;28;20033;-64
2021/12/12 08:50:59;;;;;;;24.08;12.88;;;;;;;;;;5053964;28;20091;-64
2021/12/12 08:53:27;;;;;;;23.52;12.48;;;;;;;;;;5053631;28;20036;-64
2021/12/12 08:55:54;;;;;;;28.05;13.18;;;;;;;;;;5035200;28;20047;-64
2021/12/12 08:58:22;;;;;;;29.80;12.57;;;;;;;;;;5053419;28;20107;-64
2021/12/12 09:01:09;;;;;;;27.38;13.20;;;;;;;;;;5053786;28;20047;-64
2021/12/12 09:03:50;;;;;;;27.92;14.00;;;;;;;;;;5052886;28;20033;-64
2021/12/12 09:06:17;;;;;;;28.05;14.05;;;;;;;;;;5053246;28;20076;-64
2021/12/12 09:08:43;;;;;;;27.88;13.65;;;;;;;;;;5053531;28;20041;-64
2021/12/12 09:11:14;;;;;;;29.08;14.32;;;;;;;;;;5052582;28;20064;-64
2021/12/12 09:13:46;;;;;;;33.63;15.10;;;;;;;;;;5053391;28;20050;-64
2021/12/12 09:16:29;;;;;;;35.20;16.08;;;;;;;;;;5053338;28;20380;-64
2021/12/12 09:19:06;;;;;;;31.85;15.07;;;;;;;;;;5052640;28;20103;-64
2021/12/12 09:21:52;;;;;;;35.05;16.48;;;;;;;;;;5034080;28;20052;-64
2021/12/12 09:24:18;;;;;;;37.92;16.10;;;;;;;;;;5052621;28;20045;-64
2021/12/12 09:26:48;;;;;;;39.20;16.58;;;;;;;;;;5052182;28;20081;-64
2021/12/12 09:29:27;;;;;;;41.22;17.95;;;;;;;;;;5053190;28;20080;-64
2021/12/12 09:31:55;;;;;;;41.67;17.50;;;;;;;;;;5052955;28;20080;-64
2021/12/12 09:34:41;;;;;;;39.88;16.92;;;;;;;;;;5052421;28;20045;-64
2021/12/12 09:37:20;;;;;;;43.97;17.55;;;;;;;;;;5052737;28;20080;-64
2021/12/12 09:39:53;;;;;;;41.72;17.65;;;;;;;;;;5052915;28;20033;-64
2021/12/12 09:42:19;;;;;;;47.08;19.45;;;;;;;;;;5052103;28;20048;-64
2021/12/12 09:45:03;;;;;;;46.15;19.42;;;;;;;;;;5052739;28;20033;-64
2021/12/12 09:48:13;;;;;;;43.75;18.63;;;;;;;;;;5052575;28;20040;-64
2021/12/12 09:53:36;;;;;;;41.63;18.60;;;;;;;;;;5052571;28;20091;-64
2021/12/12 09:56:02;;;;;;;43.88;18.30;;;;;;;;;;5051799;28;20045;-64
2021/12/12 09:58:31;;;;;;;44.20;19.08;;;;;;;;;;5052606;28;20090;-64
2021/12/12 10:01:05;;;;;;;44.28;19.00;;;;;;;;;;5052448;28;20098;-64
2021/12/12 10:03:34;;;;;;;45.10;19.67;;;;;;;;;;5051692;28;20450;-64
2021/12/12 10:06:05;;;;;;;45.10;18.67;;;;;;;;;;5034523;28;20036;-64
2021/12/12 10:08:51;;;;;;;42.90;18.73;;;;;;;;;;5052425;28;20808;-64
2021/12/12 10:11:33;;;;;;;39.65;18.70;;;;;;;;;;5033335;28;20037;-64
2021/12/12 10:13:59;;;;;;;42.35;19.15;;;;;;;;;;5052284;28;20039;-64
2021/12/12 10:16:25;;;;;;;41.92;17.55;;;;;;;;;;5052146;28;20514;-64
2021/12/12 10:18:55;;;;;;;45.63;18.63;;;;;;;;;;5051552;28;20037;-64
2021/12/12 10:21:45;;;;;;;37.67;17.35;;;;;;;;;;5052114;28;20124;-64
2021/12/12 10:24:18;;;;;;;38.58;17.63;;;;;;;;;;5051853;28;20148;-64
2021/12/12 10:26:46;;;;;;;37.95;17.20;;;;;;;;;;5051262;28;20049;-64
2021/12/12 10:29:38;;;;;;;38.22;17.20;;;;;;;;;;5052041;28;20129;-64
2021/12/12 10:32:04;;;;;;;36.38;16.83;;;;;;;;;;5020532;28;20110;-64
2021/12/12 10:34:36;;;;;;;37.95;16.13;;;;;;;;;;5051872;28;20049;-64
2021/12/12 10:37:09;;;;;;;36.13;16.30;;;;;;;;;;5051955;28;20106;-64
2021/12/12 10:39:41;;;;;;;34.97;16.05;;;;;;;;;;5051242;28;20060;-64
2021/12/12 10:42:18;;;;;;;31.45;14.90;;;;;;;;;;5051627;28;20036;-64
2021/12/12 10:44:47;;;;;;;33.75;15.77;;;;;;;;;;5051806;28;20041;-64
2021/12/12 10:47:17;;;;;;;34.83;16.25;;;;;;;;;;5051193;28;20048;-64
2021/12/12 10:49:43;;;;;;;32.35;15.40;;;;;;;;;;5033977;28;20218;-64
2021/12/12 10:52:34;;;;;;;28.20;15.40;;;;;;;;;;5051686;28;20627;-64
2021/12/12 10:55:21;;;;;;;28.40;14.20;;;;;;;;;;5051213;28;20045;-64
2021/12/12 10:57:55;;;;;;;29.88;13.90;;;;;;;;;;5051117;28;20107;-64
2021/12/12 11:00:24;;;;;;;31.40;15.05;;;;;;;;;;5051562;28;20423;-64
2021/12/12 11:02:55;;;;;;;32.72;15.30;;;;;;;;;;5050796;28;20032;-64
2021/12/12 11:05:28;;;;;;;30.80;14.23;;;;;;;;;;5051539;28;20041;-64
2021/12/12 11:07:55;;;;;;;30.42;14.48;;;;;;;;;;5051489;28;20045;-64
2021/12/12 11:10:23;;;;;;;24.73;13.57;;;;;;;;;;5032743;28;20049;-64
2021/12/12 11:12:52;;;;;;;27.55;13.63;;;;;;;;;;5051330;28;20044;-64
2021/12/12 11:15:27;;;;;;;28.05;14.27;;;;;;;;;;5051402;28;20541;-64
2021/12/12 11:17:56;;;;;;;29.40;14.38;;;;;;;;;;5050777;28;20044;-64
2021/12/12 11:20:25;;;;;;;31.42;14.93;;;;;;;;;;5051397;28;20033;-64
2021/12/12 11:22:55;;;;;;;32.63;16.35;;;;;;;;;;5051045;28;20049;-64
2021/12/12 11:25:39;;;;;;;31.42;14.65;;;;;;;;;;5032897;28;20052;-64
2021/12/12 11:28:05;;;;;;;34.55;13.93;;;;;;;;;;5050953;28;20076;-64
2021/12/12 11:30:34;;;;;;;34.92;15.82;;;;;;;;;;5051183;28;20066;-64
2021/12/12 11:33:02;;;;;;;35.17;14.85;;;;;;;;;;5050264;28;20041;-64
2021/12/12 11:35:28;;;;;;;31.55;14.65;;;;;;;;;;5050812;28;20091;-64
2021/12/12 11:38:02;;;;;;;32.70;13.85;;;;;;;;;;5050832;28;20045;-64
2021/12/12 11:40:37;;;;;;;28.45;13.45;;;;;;;;;;5050357;28;20063;-64
2021/12/12 11:43:08;;;;;;;27.15;13.52;;;;;;;;;;5051020;28;20037;-64
2021/12/12 11:45:40;;;;;;;24.98;12.48;;;;;;;;;;5052854;28;20124;-64
2021/12/12 11:48:15;;;;;;;29.05;13.05;;;;;;;;;;5054374;28;20368;-64
2021/12/12 11:50:57;;;;;;;34.13;15.05;;;;;;;;;;5055047;28;20114;-64
2021/12/12 11:53:35;;;;;;;33.42;15.20;;;;;;;;;;5054252;28;20044;-64
2021/12/12 11:56:05;;;;;;;32.50;14.55;;;;;;;;;;5054851;28;20045;-64
2021/12/12 11:58:57;;;;;;;35.47;14.80;;;;;;;;;;5054856;28;20459;-64
2021/12/12 12:01:27;;;;;;;35.20;15.93;;;;;;;;;;5023464;28;20502;-64
2021/12/12 12:04:05;;;;;;;38.08;17.42;;;;;;;;;;5054833;28;20033;-64
2021/12/12 12:06:31;;;;;;;30.30;14.75;;;;;;;;;;5054804;28;20048;-64
2021/12/12 12:09:06;;;;;;;36.60;15.98;;;;;;;;;;5054075;28;20468;-64
2021/12/12 12:11:45;;;;;;;37.13;17.42;;;;;;;;;;5054603;28;20478;-64
2021/12/12 12:14:18;;;;;;;44.17;18.48;;;;;;;;;;5054549;28;20048;-64
2021/12/12 12:17:02;;;;;;;34.20;16.30;;;;;;;;;;5053905;28;20557;-64
2021/12/12 12:19:43;;;;;;;41.42;17.58;;;;;;;;;;5054034;28;20076;-64
2021/12/12 12:22:10;;;;;;;39.97;16.88;;;;;;;;;;5054231;28;20045;-64
2021/12/12 12:24:43;;;;;;;42.85;17.60;;;;;;;;;;5053321;28;20424;-64
2021/12/12 12:27:24;;;;;;;37.72;17.08;;;;;;;;;;5036405;28;20499;-64
2021/12/12 12:30:06;;;;;;;41.97;17.60;;;;;;;;;;5054331;28;20048;-64
2021/12/12 12:32:51;;;;;;;40.53;16.17;;;;;;;;;;5053458;28;20098;-64
2021/12/12 12:35:29;;;;;;;38.30;17.30;;;;;;;;;;5054139;28;20045;-64
2021/12/12 12:37:59;;;;;;;35.80;18.38;;;;;;;;;;5053447;28;20037;-64
2021/12/12 12:40:43;;;;;;;49.65;22.80;;;;;;;;;;5054016;28;20048;-64
2021/12/12 12:43:28;;;;;;;37.10;16.13;;;;;;;;;;5053891;28;20121;-64
2021/12/12 12:46:13;;;;;;;39.42;17.67;;;;;;;;;;5053383;28;20037;-64
2021/12/12 12:48:45;;;;;;;37.85;16.17;;;;;;;;;;5053929;28;20396;-64
2021/12/12 12:51:30;;;;;;;42.25;16.63;;;;;;;;;;5053917;28;20036;-64
2021/12/12 12:53:59;;;;;;;39.17;16.98;;;;;;;;;;5053045;28;20120;-64
2021/12/12 12:56:44;;;;;;;37.50;16.73;;;;;;;;;;5053663;28;20051;-64
2021/12/12 12:59:28;;;;;;;39.97;16.38;;;;;;;;;;5053823;28;20033;-64
2021/12/12 13:02:14;;;;;;;50.72;18.70;;;;;;;;;;5052916;28;20120;-64
2021/12/12 13:04:58;;;;;;;47.65;18.60;;;;;;;;;;5053683;28;20041;-64
2021/12/12 13:07:29;;;;;;;38.33;17.33;;;;;;;;;;5052779;28;20080;-64
2021/12/12 13:09:58;;;;;;;50.00;18.27;;;;;;;;;;5053380;28;20048;-64
2021/12/12 13:12:30;;;;;;;45.55;17.90;;;;;;;;;;5053124;28;20048;-64
2021/12/12 13:14:57;;;;;;;44.17;17.42;;;;;;;;;;5052813;28;20037;-64
2021/12/12 13:17:32;;;;;;;45.53;17.33;;;;;;;;;;5052945;28;20052;-64
2021/12/12 13:20:01;;;;;;;37.25;16.23;;;;;;;;;;5053362;28;20056;-64
2021/12/12 13:22:31;;;;;;;43.10;17.52;;;;;;;;;;5017858;28;20037;-64
2021/12/12 13:24:58;;;;;;;44.90;17.88;;;;;;;;;;5053408;28;20049;-64
2021/12/12 13:27:56;;;;;;;47.17;18.23;;;;;;;;;;5052953;28;20803;-64
2021/12/12 13:30:34;;;;;;;43.10;17.83;;;;;;;;;;5052526;28;20041;-64
2021/12/12 13:33:07;;;;;;;44.17;17.17;;;;;;;;;;5053138;28;20045;-64
2021/12/12 13:35:36;;;;;;;48.35;18.70;;;;;;;;;;5053224;28;20032;-64
2021/12/12 13:38:17;;;;;;;50.58;18.88;;;;;;;;;;5034242;28;20055;-64
2021/12/12 13:40:52;;;;;;;45.72;18.15;;;;;;;;;;5053071;28;20036;-64
2021/12/12 13:43:23;;;;;;;71.20;23.50;;;;;;;;;;5052782;28;20029;-64
2021/12/12 13:46:04;;;;;;;48.55;19.40;;;;;;;;;;5052019;28;20041;-64
2021/12/12 13:48:35;;;;;;;50.83;18.65;;;;;;;;;;5052809;28;20037;-64
2021/12/12 13:51:09;;;;;;;56.20;20.95;;;;;;;;;;5052784;28;20055;-64
2021/12/12 13:53:41;;;;;;;53.58;19.52;;;;;;;;;;5052029;28;20048;-64
2021/12/12 13:56:07;;;;;;;;;;;;;;;;;;5052830;28;20052;-64
2021/12/12 13:58:48;;;;;;;47.72;18.33;;;;;;;;;;5052615;28;19917;-64
2021/12/12 14:01:17;;;;;;;52.70;18.02;;;;;;;;;;5051994;28;20037;-64
2021/12/12 14:03:50;;;;;;;48.38;18.58;;;;;;;;;;5052358;28;20128;-64
2021/12/12 14:06:18;;;;;;;54.45;18.55;;;;;;;;;;5052503;28;20049;-64
2021/12/12 14:08:46;;;;;;;49.85;18.10;;;;;;;;;;5051267;28;20052;-64
2021/12/12 14:11:20;;;;;;;50.00;19.55;;;;;;;;;;5052530;28;20674;-64
2021/12/12 14:13:48;;;;;;;54.88;19.42;;;;;;;;;;5052050;28;20045;-64
2021/12/12 14:16:24;;;;;;;57.25;20.02;;;;;;;;;;5051464;28;20099;-64
2021/12/12 14:18:52;;;;;;;57.38;20.60;;;;;;;;;;5052191;28;20043;-64
2021/12/12 14:21:19;;;;;;;47.72;18.70;;;;;;;;;;5051690;28;20033;-64
2021/12/12 14:23:46;;;;;;;49.88;18.52;;;;;;;;;;5051519;28;20856;-64
2021/12/12 14:26:16;;;;;;;45.80;18.75;;;;;;;;;;5051971;28;20045;-64
2021/12/12 14:28:43;;;;;;;37.30;15.98;;;;;;;;;;5051597;28;20048;-64
2021/12/12 14:31:10;;;;;;;42.92;17.15;;;;;;;;;;5051873;28;20086;-64
2021/12/12 14:33:42;;;;;;;36.75;16.83;;;;;;;;;;5051867;28;20044;-64
2021/12/12 14:36:11;;;;;;;47.63;17.75;;;;;;;;;;5051306;28;20043;-64
2021/12/12 14:38:39;;;;;;;44.33;18.20;;;;;;;;;;5051952;28;20041;-64
2021/12/12 14:41:06;;;;;;;45.38;17.60;;;;;;;;;;5051824;28;20399;-64
2021/12/12 14:43:34;;;;;;;42.88;16.83;;;;;;;;;;5051265;28;20081;-64
2021/12/12 14:46:01;;;;;;;41.38;17.52;;;;;;;;;;5051633;28;20048;-64
2021/12/12 14:48:30;;;;;;;38.08;17.33;;;;;;;;;;5033705;28;20055;-64
2021/12/12 14:51:01;;;;;;;53.65;20.77;;;;;;;;;;5051376;28;20055;-64
2021/12/12 14:53:32;;;;;;;37.53;16.33;;;;;;;;;;5051688;28;20070;-64